sensor_id;sensor_type;location;lat;lon;timestamp;pressure;altitude;pressure_sealevel;temperature;humidity
70323;BME280;57735;56.264;43.898;2023-12-07T00:02:18;102916.53;;;-13.16;73.22
70323;BME280;57735;56.264;43.898;2023-12-07T00:04:48;102925.31;;;-13.10;73.38
70323;BME280;57735;56.264;43.898;2023-12-07T00:07:21;102919.59;;;-13.02;73.35
70323;BME280;57735;56.264;43.898;2023-12-07T00:09:54;102918.50;;;-13.09;72.95
70323;BME280;57735;56.264;43.898;2023-12-07T00:12:25;102917.63;;;-13.10;72.97
70323;BME280;57735;56.264;43.898;2023-12-07T00:14:56;102920.00;;;-13.16;72.59
70323;BME280;57735;56.264;43.898;2023-12-07T00:17:27;102923.13;;;-13.23;72.65
70323;BME280;57735;56.264;43.898;2023-12-07T00:19:58;102920.53;;;-13.24;72.59
70323;BME280;57735;56.264;43.898;2023-12-07T00:22:29;102929.25;;;-13.19;72.58
70323;BME280;57735;56.264;43.898;2023-12-07T00:25:00;102923.13;;;-13.23;72.39
70323;BME280;57735;56.264;43.898;2023-12-07T00:27:31;102919.53;;;-13.28;72.22
70323;BME280;57735;56.264;43.898;2023-12-07T00:30:02;102929.44;;;-13.37;71.71
70323;BME280;57735;56.264;43.898;2023-12-07T00:32:36;102926.72;;;-13.42;71.73
70323;BME280;57735;56.264;43.898;2023-12-07T00:35:10;102923.22;;;-13.44;71.81
70323;BME280;57735;56.264;43.898;2023-12-07T00:37:41;102926.81;;;-13.38;72.50
70323;BME280;57735;56.264;43.898;2023-12-07T00:40:12;102931.06;;;-13.39;71.86
70323;BME280;57735;56.264;43.898;2023-12-07T00:42:43;102935.31;;;-13.39;71.89
70323;BME280;57735;56.264;43.898;2023-12-07T00:45:14;102936.97;;;-13.42;71.82
70323;BME280;57735;56.264;43.898;2023-12-07T00:47:45;102931.06;;;-13.39;72.01
70323;BME280;57735;56.264;43.898;2023-12-07T00:50:16;102936.38;;;-13.34;71.95
70323;BME280;57735;56.264;43.898;2023-12-07T00:52:46;102935.69;;;-13.30;72.28
70323;BME280;57735;56.264;43.898;2023-12-07T00:55:17;102941.56;;;-13.33;72.04
70323;BME280;57735;56.264;43.898;2023-12-07T00:57:49;102939.81;;;-13.34;71.91
70323;BME280;57735;56.264;43.898;2023-12-07T01:00:20;102942.25;;;-13.37;72.04
70323;BME280;57735;56.264;43.898;2023-12-07T01:02:51;102937.13;;;-13.37;72.01
70323;BME280;57735;56.264;43.898;2023-12-07T01:05:21;102946.34;;;-13.42;71.94
70323;BME280;57735;56.264;43.898;2023-12-07T01:07:52;102938.72;;;-13.40;72.25
70323;BME280;57735;56.264;43.898;2023-12-07T01:10:25;102946.22;;;-13.45;72.46
70323;BME280;57735;56.264;43.898;2023-12-07T01:12:56;102937.53;;;-13.49;72.43
70323;BME280;57735;56.264;43.898;2023-12-07T01:15:27;102945.16;;;-13.50;72.34
70323;BME280;57735;56.264;43.898;2023-12-07T01:17:58;102949.16;;;-13.58;72.39
70323;BME280;57735;56.264;43.898;2023-12-07T01:20:28;102951.63;;;-13.60;72.51
70323;BME280;57735;56.264;43.898;2023-12-07T01:22:59;102953.47;;;-13.57;72.61
70323;BME280;57735;56.264;43.898;2023-12-07T01:25:33;102953.50;;;-13.56;72.71
70323;BME280;57735;56.264;43.898;2023-12-07T01:28:04;102963.00;;;-13.53;72.79
70323;BME280;57735;56.264;43.898;2023-12-07T01:30:35;102966.50;;;-13.51;72.53
70323;BME280;57735;56.264;43.898;2023-12-07T01:33:06;102955.31;;;-13.53;72.36
70323;BME280;57735;56.264;43.898;2023-12-07T01:35:40;102966.38;;;-13.54;72.00
70323;BME280;57735;56.264;43.898;2023-12-07T01:38:11;102963.00;;;-13.53;72.03
70323;BME280;57735;56.264;43.898;2023-12-07T01:40:43;102970.34;;;-13.62;71.76
70323;BME280;57735;56.264;43.898;2023-12-07T01:43:13;102971.03;;;-13.66;72.39
70323;BME280;57735;56.264;43.898;2023-12-07T01:45:44;102979.66;;;-13.64;72.48
70323;BME280;57735;56.264;43.898;2023-12-07T01:48:15;102981.41;;;-13.63;72.24
70323;BME280;57735;56.264;43.898;2023-12-07T01:50:46;102990.72;;;-13.65;72.04
70323;BME280;57735;56.264;43.898;2023-12-07T01:53:18;102988.28;;;-13.62;72.50
70323;BME280;57735;56.264;43.898;2023-12-07T01:55:49;102979.84;;;-13.60;72.46
70323;BME280;57735;56.264;43.898;2023-12-07T01:58:21;102993.63;;;-13.56;72.35
70323;BME280;57735;56.264;43.898;2023-12-07T02:00:52;102985.78;;;-13.61;72.08
70323;BME280;57735;56.264;43.898;2023-12-07T02:03:23;102986.66;;;-13.60;71.99
70323;BME280;57735;56.264;43.898;2023-12-07T02:05:54;102987.69;;;-13.55;72.29
70323;BME280;57735;56.264;43.898;2023-12-07T02:08:25;102989.50;;;-13.53;72.31
70323;BME280;57735;56.264;43.898;2023-12-07T02:10:56;102988.16;;;-13.45;72.63
70323;BME280;57735;56.264;43.898;2023-12-07T02:13:27;102981.53;;;-13.38;72.59
70323;BME280;57735;56.264;43.898;2023-12-07T02:15:59;102986.69;;;-13.38;72.07
70323;BME280;57735;56.264;43.898;2023-12-07T02:18:40;102986.75;;;-13.36;72.15
70323;BME280;57735;56.264;43.898;2023-12-07T02:21:21;102994.50;;;-13.35;71.80
70323;BME280;57735;56.264;43.898;2023-12-07T02:23:56;102991.25;;;-13.31;72.07
70323;BME280;57735;56.264;43.898;2023-12-07T02:26:34;102992.25;;;-13.27;71.98
70323;BME280;57735;56.264;43.898;2023-12-07T02:29:05;102991.59;;;-13.22;71.94
70323;BME280;57735;56.264;43.898;2023-12-07T02:31:36;102995.22;;;-13.17;71.91
70323;BME280;57735;56.264;43.898;2023-12-07T02:34:07;102996.09;;;-13.16;71.45
70323;BME280;57735;56.264;43.898;2023-12-07T02:36:43;103000.28;;;-13.18;71.32
70323;BME280;57735;56.264;43.898;2023-12-07T02:39:15;103004.75;;;-13.13;71.79
70323;BME280;57735;56.264;43.898;2023-12-07T02:41:47;103013.50;;;-13.08;71.51
70323;BME280;57735;56.264;43.898;2023-12-07T02:44:19;103002.38;;;-13.08;71.26
70323;BME280;57735;56.264;43.898;2023-12-07T02:46:53;103009.53;;;-12.99;71.67
70323;BME280;57735;56.264;43.898;2023-12-07T02:49:24;103016.66;;;-12.92;71.48
70323;BME280;57735;56.264;43.898;2023-12-07T02:51:55;103008.09;;;-12.93;71.28
70323;BME280;57735;56.264;43.898;2023-12-07T02:54:26;103012.28;;;-12.95;71.07
70323;BME280;57735;56.264;43.898;2023-12-07T02:56:56;103011.41;;;-12.95;71.40
70323;BME280;57735;56.264;43.898;2023-12-07T02:59:27;103004.41;;;-12.99;71.13
70323;BME280;57735;56.264;43.898;2023-12-07T03:01:58;103006.09;;;-13.00;71.23
70323;BME280;57735;56.264;43.898;2023-12-07T03:04:29;103013.09;;;-12.96;71.05
70323;BME280;57735;56.264;43.898;2023-12-07T03:07:00;103008.25;;;-12.88;71.25
70323;BME280;57735;56.264;43.898;2023-12-07T03:09:31;103020.31;;;-12.86;71.33
70323;BME280;57735;56.264;43.898;2023-12-07T03:12:01;103017.00;;;-12.83;71.34
70323;BME280;57735;56.264;43.898;2023-12-07T03:14:32;103019.63;;;-12.82;71.17
70323;BME280;57735;56.264;43.898;2023-12-07T03:17:03;103019.56;;;-12.83;71.05
70323;BME280;57735;56.264;43.898;2023-12-07T03:19:40;103018.63;;;-12.85;71.09
70323;BME280;57735;56.264;43.898;2023-12-07T03:22:13;103018.88;;;-12.79;71.51
70323;BME280;57735;56.264;43.898;2023-12-07T03:24:50;103023.41;;;-12.72;71.19
70323;BME280;57735;56.264;43.898;2023-12-07T03:27:21;103020.50;;;-12.81;70.88
70323;BME280;57735;56.264;43.898;2023-12-07T03:29:52;103018.69;;;-12.84;71.17
70323;BME280;57735;56.264;43.898;2023-12-07T03:32:25;103029.97;;;-12.80;71.40
70323;BME280;57735;56.264;43.898;2023-12-07T03:34:58;103028.31;;;-12.78;71.48
70323;BME280;57735;56.264;43.898;2023-12-07T03:37:29;103030.34;;;-12.70;71.82
70323;BME280;57735;56.264;43.898;2023-12-07T03:40:00;103037.28;;;-12.67;71.88
70323;BME280;57735;56.264;43.898;2023-12-07T03:42:31;103035.72;;;-12.63;71.76
70323;BME280;57735;56.264;43.898;2023-12-07T03:45:01;103044.38;;;-12.61;71.42
70323;BME280;57735;56.264;43.898;2023-12-07T03:47:36;103049.50;;;-12.61;71.52
70323;BME280;57735;56.264;43.898;2023-12-07T03:50:07;103052.13;;;-12.60;71.34
70323;BME280;57735;56.264;43.898;2023-12-07T03:52:38;103042.72;;;-12.59;71.44
70323;BME280;57735;56.264;43.898;2023-12-07T03:55:09;103046.38;;;-12.53;71.53
70323;BME280;57735;56.264;43.898;2023-12-07T03:57:41;103049.06;;;-12.50;71.75
70323;BME280;57735;56.264;43.898;2023-12-07T04:00:12;103046.69;;;-12.45;71.69
70323;BME280;57735;56.264;43.898;2023-12-07T04:02:43;103045.91;;;-12.43;71.57
70323;BME280;57735;56.264;43.898;2023-12-07T04:05:14;103051.13;;;-12.41;71.32
70323;BME280;57735;56.264;43.898;2023-12-07T04:07:45;103042.41;;;-12.45;71.46
70323;BME280;57735;56.264;43.898;2023-12-07T04:10:18;103045.03;;;-12.43;71.61
70323;BME280;57735;56.264;43.898;2023-12-07T04:12:54;103045.25;;;-12.37;71.81
70323;BME280;57735;56.264;43.898;2023-12-07T04:15:25;103054.75;;;-12.35;71.58
70323;BME280;57735;56.264;43.898;2023-12-07T04:17:58;103048.69;;;-12.37;71.56
70323;BME280;57735;56.264;43.898;2023-12-07T04:20:29;103050.44;;;-12.36;71.60
70323;BME280;57735;56.264;43.898;2023-12-07T04:23:00;103058.97;;;-12.37;71.39
70323;BME280;57735;56.264;43.898;2023-12-07T04:25:30;103055.63;;;-12.34;71.44
70323;BME280;57735;56.264;43.898;2023-12-07T04:28:01;103069.41;;;-12.32;71.48
70323;BME280;57735;56.264;43.898;2023-12-07T04:30:32;103065.03;;;-12.35;71.27
70323;BME280;57735;56.264;43.898;2023-12-07T04:33:03;103074.50;;;-12.33;71.47
70323;BME280;57735;56.264;43.898;2023-12-07T04:35:34;103070.19;;;-12.35;71.23
70323;BME280;57735;56.264;43.898;2023-12-07T04:38:05;103064.16;;;-12.35;71.13
70323;BME280;57735;56.264;43.898;2023-12-07T04:40:36;103072.69;;;-12.36;71.12
70323;BME280;57735;56.264;43.898;2023-12-07T04:43:08;103081.13;;;-12.40;71.13
70323;BME280;57735;56.264;43.898;2023-12-07T04:45:38;103070.88;;;-12.39;71.05
70323;BME280;57735;56.264;43.898;2023-12-07T04:48:09;103075.13;;;-12.39;71.07
70323;BME280;57735;56.264;43.898;2023-12-07T04:50:40;103082.84;;;-12.39;71.09
70323;BME280;57735;56.264;43.898;2023-12-07T04:53:11;103087.13;;;-12.40;70.99
70323;BME280;57735;56.264;43.898;2023-12-07T04:55:42;103086.22;;;-12.42;71.17
70323;BME280;57735;56.264;43.898;2023-12-07T04:58:17;103085.28;;;-12.44;71.31
70323;BME280;57735;56.264;43.898;2023-12-07T05:00:48;103095.44;;;-12.47;71.41
70323;BME280;57735;56.264;43.898;2023-12-07T05:03:19;103093.69;;;-12.48;71.44
70323;BME280;57735;56.264;43.898;2023-12-07T05:05:49;103100.69;;;-12.44;71.67
70323;BME280;57735;56.264;43.898;2023-12-07T05:08:20;103103.41;;;-12.39;71.67
70323;BME280;57735;56.264;43.898;2023-12-07T05:10:51;103100.00;;;-12.38;71.44
70323;BME280;57735;56.264;43.898;2023-12-07T05:13:22;103109.53;;;-12.36;71.15
70323;BME280;57735;56.264;43.898;2023-12-07T05:15:53;103112.28;;;-12.31;71.33
70323;BME280;57735;56.264;43.898;2023-12-07T05:18:23;103109.78;;;-12.29;71.08
70323;BME280;57735;56.264;43.898;2023-12-07T05:20:54;103107.97;;;-12.32;71.06
70323;BME280;57735;56.264;43.898;2023-12-07T05:23:28;103112.28;;;-12.31;71.05
70323;BME280;57735;56.264;43.898;2023-12-07T05:25:59;103108.78;;;-12.33;70.95
70323;BME280;57735;56.264;43.898;2023-12-07T05:28:30;103121.56;;;-12.35;70.83
70323;BME280;57735;56.264;43.898;2023-12-07T05:31:01;103119.06;;;-12.33;70.93
70323;BME280;57735;56.264;43.898;2023-12-07T05:33:32;103118.19;;;-12.33;70.98
70323;BME280;57735;56.264;43.898;2023-12-07T05:36:04;103126.94;;;-12.28;71.24
70323;BME280;57735;56.264;43.898;2023-12-07T05:38:35;103129.22;;;-12.36;70.92
70323;BME280;57735;56.264;43.898;2023-12-07T05:41:05;103132.53;;;-12.39;70.91
70323;BME280;57735;56.264;43.898;2023-12-07T05:43:36;103125.78;;;-12.37;71.27
70323;BME280;57735;56.264;43.898;2023-12-07T05:46:07;103123.31;;;-12.33;71.22
70323;BME280;57735;56.264;43.898;2023-12-07T05:48:38;103121.00;;;-12.27;71.12
70323;BME280;57735;56.264;43.898;2023-12-07T05:51:18;103122.88;;;-12.23;70.97
70323;BME280;57735;56.264;43.898;2023-12-07T05:53:53;103143.50;;;-12.20;70.60
70323;BME280;57735;56.264;43.898;2023-12-07T05:56:26;103141.06;;;-12.17;70.90
70323;BME280;57735;56.264;43.898;2023-12-07T05:58:59;103140.41;;;-12.12;71.07
70323;BME280;57735;56.264;43.898;2023-12-07T06:01:33;103144.75;;;-12.11;71.01
70323;BME280;57735;56.264;43.898;2023-12-07T06:04:05;103146.19;;;-12.17;70.77
70323;BME280;57735;56.264;43.898;2023-12-07T06:06:36;103144.44;;;-12.18;70.82
70323;BME280;57735;56.264;43.898;2023-12-07T06:09:07;103144.56;;;-12.15;71.16
70323;BME280;57735;56.264;43.898;2023-12-07T06:11:41;103153.28;;;-12.12;71.00
70323;BME280;57735;56.264;43.898;2023-12-07T06:14:12;103155.16;;;-12.08;71.20
70323;BME280;57735;56.264;43.898;2023-12-07T06:16:45;103150.91;;;-12.06;71.05
70323;BME280;57735;56.264;43.898;2023-12-07T06:19:16;103151.16;;;-12.00;70.99
70323;BME280;57735;56.264;43.898;2023-12-07T06:21:46;103158.28;;;-11.92;70.79
70323;BME280;57735;56.264;43.898;2023-12-07T06:24:17;103152.56;;;-11.84;70.65
70323;BME280;57735;56.264;43.898;2023-12-07T06:26:48;103153.63;;;-11.79;70.19
70323;BME280;57735;56.264;43.898;2023-12-07T06:29:19;103158.91;;;-11.74;70.19
70323;BME280;57735;56.264;43.898;2023-12-07T06:31:50;103163.38;;;-11.69;70.12
70323;BME280;57735;56.264;43.898;2023-12-07T06:34:22;103160.41;;;-11.55;70.51
70323;BME280;57735;56.264;43.898;2023-12-07T06:36:52;103165.94;;;-11.45;70.10
70323;BME280;57735;56.264;43.898;2023-12-07T06:39:23;103164.44;;;-11.38;69.60
70323;BME280;57735;56.264;43.898;2023-12-07T06:41:54;103158.56;;;-11.34;69.44
70323;BME280;57735;56.264;43.898;2023-12-07T06:44:26;103162.78;;;-11.36;69.27
70323;BME280;57735;56.264;43.898;2023-12-07T06:46:57;103154.88;;;-11.42;68.88
70323;BME280;57735;56.264;43.898;2023-12-07T06:49:27;103159.91;;;-11.45;69.03
70323;BME280;57735;56.264;43.898;2023-12-07T06:51:58;103164.59;;;-11.34;69.40
70323;BME280;57735;56.264;43.898;2023-12-07T06:54:29;103159.41;;;-11.35;68.92
70323;BME280;57735;56.264;43.898;2023-12-07T06:57:00;103163.56;;;-11.39;68.83
70323;BME280;57735;56.264;43.898;2023-12-07T06:59:32;103165.66;;;-11.52;68.85
70323;BME280;57735;56.264;43.898;2023-12-07T07:02:04;103170.69;;;-11.55;69.25
70323;BME280;57735;56.264;43.898;2023-12-07T07:04:37;103163.91;;;-11.53;69.20
70323;BME280;57735;56.264;43.898;2023-12-07T07:07:07;103174.97;;;-11.56;69.08
70323;BME280;57735;56.264;43.898;2023-12-07T07:09:38;103168.41;;;-11.48;69.28
70323;BME280;57735;56.264;43.898;2023-12-07T07:12:12;103170.38;;;-11.41;69.30
70323;BME280;57735;56.264;43.898;2023-12-07T07:14:43;103180.91;;;-11.33;69.16
70323;BME280;57735;56.264;43.898;2023-12-07T07:17:17;103181.53;;;-11.40;68.74
70323;BME280;57735;56.264;43.898;2023-12-07T07:19:49;103189.28;;;-11.39;68.79
70323;BME280;57735;56.264;43.898;2023-12-07T07:22:19;103190.03;;;-11.43;68.35
70323;BME280;57735;56.264;43.898;2023-12-07T07:24:50;103187.06;;;-11.53;68.25
70323;BME280;57735;56.264;43.898;2023-12-07T07:27:21;103190.31;;;-11.59;68.20
70323;BME280;57735;56.264;43.898;2023-12-07T07:29:53;103188.63;;;-11.58;68.37
70323;BME280;57735;56.264;43.898;2023-12-07T07:32:24;103188.06;;;-11.50;68.49
70323;BME280;57735;56.264;43.898;2023-12-07T07:34:58;103187.59;;;-11.38;68.67
70323;BME280;57735;56.264;43.898;2023-12-07T07:37:29;103196.34;;;-11.33;68.36
70323;BME280;57735;56.264;43.898;2023-12-07T07:40:01;103190.41;;;-11.32;67.98
70323;BME280;57735;56.264;43.898;2023-12-07T07:42:38;103191.09;;;-11.36;68.00
70323;BME280;57735;56.264;43.898;2023-12-07T07:45:10;103184.81;;;-11.44;67.88
70323;BME280;57735;56.264;43.898;2023-12-07T07:47:41;103193.38;;;-11.45;67.98
70323;BME280;57735;56.264;43.898;2023-12-07T07:50:12;103195.94;;;-11.45;68.10
70323;BME280;57735;56.264;43.898;2023-12-07T07:52:43;103192.50;;;-11.46;68.02
70323;BME280;57735;56.264;43.898;2023-12-07T07:55:14;103196.88;;;-11.43;68.00
70323;BME280;57735;56.264;43.898;2023-12-07T07:57:46;103195.13;;;-11.44;68.17
70323;BME280;57735;56.264;43.898;2023-12-07T08:00:17;103192.38;;;-11.49;67.97
70323;BME280;57735;56.264;43.898;2023-12-07T08:02:50;103200.16;;;-11.47;68.05
70323;BME280;57735;56.264;43.898;2023-12-07T08:05:21;103201.16;;;-11.44;67.94
70323;BME280;57735;56.264;43.898;2023-12-07T08:07:51;103199.41;;;-11.45;67.77
70323;BME280;57735;56.264;43.898;2023-12-07T08:10:25;103196.00;;;-11.44;67.87
70323;BME280;57735;56.264;43.898;2023-12-07T08:12:55;103199.56;;;-11.40;67.93
70323;BME280;57735;56.264;43.898;2023-12-07T08:15:26;103195.94;;;-11.45;67.92
70323;BME280;57735;56.264;43.898;2023-12-07T08:17:59;103203.53;;;-11.48;67.86
70323;BME280;57735;56.264;43.898;2023-12-07T08:20:30;103198.28;;;-11.51;68.25
70323;BME280;57735;56.264;43.898;2023-12-07T08:23:01;103202.72;;;-11.47;68.48
70323;BME280;57735;56.264;43.898;2023-12-07T08:25:34;103210.50;;;-11.46;68.01
70323;BME280;57735;56.264;43.898;2023-12-07T08:28:05;103203.09;;;-11.37;68.16
70323;BME280;57735;56.264;43.898;2023-12-07T08:30:36;103204.41;;;-11.24;67.85
70323;BME280;57735;56.264;43.898;2023-12-07T08:33:07;103204.00;;;-11.11;67.45
70323;BME280;57735;56.264;43.898;2023-12-07T08:35:38;103206.41;;;-11.15;67.29
70323;BME280;57735;56.264;43.898;2023-12-07T08:38:09;103208.81;;;-11.20;67.28
70323;BME280;57735;56.264;43.898;2023-12-07T08:40:40;103207.50;;;-11.09;67.34
70323;BME280;57735;56.264;43.898;2023-12-07T08:43:13;103201.53;;;-11.08;66.65
70323;BME280;57735;56.264;43.898;2023-12-07T08:45:44;103208.38;;;-11.08;66.51
70323;BME280;57735;56.264;43.898;2023-12-07T08:48:15;103204.72;;;-11.15;66.05
70323;BME280;57735;56.264;43.898;2023-12-07T08:50:48;103201.63;;;-11.05;66.47
70323;BME280;57735;56.264;43.898;2023-12-07T08:53:21;103197.63;;;-10.97;66.67
70323;BME280;57735;56.264;43.898;2023-12-07T08:55:53;103202.16;;;-10.89;66.72
70323;BME280;57735;56.264;43.898;2023-12-07T08:58:24;103202.72;;;-10.98;66.65
70323;BME280;57735;56.264;43.898;2023-12-07T09:00:54;103198.72;;;-10.88;67.09
70323;BME280;57735;56.264;43.898;2023-12-07T09:03:26;103205.22;;;-10.74;66.78
70323;BME280;57735;56.264;43.898;2023-12-07T09:06:02;103203.75;;;-10.66;66.54
70323;BME280;57735;56.264;43.898;2023-12-07T09:08:33;103203.88;;;-10.63;65.96
70323;BME280;57735;56.264;43.898;2023-12-07T09:11:04;103208.97;;;-10.65;65.99
70323;BME280;57735;56.264;43.898;2023-12-07T09:13:35;103200.41;;;-10.64;65.74
70323;BME280;57735;56.264;43.898;2023-12-07T09:16:06;103209.06;;;-10.62;65.67
70323;BME280;57735;56.264;43.898;2023-12-07T09:18:37;103201.13;;;-10.68;65.46
70323;BME280;57735;56.264;43.898;2023-12-07T09:21:09;103198.44;;;-10.71;65.78
70323;BME280;57735;56.264;43.898;2023-12-07T09:23:39;103204.59;;;-10.67;66.03
70323;BME280;57735;56.264;43.898;2023-12-07T09:26:10;103199.53;;;-10.64;65.89
70323;BME280;57735;56.264;43.898;2023-12-07T09:28:41;103202.94;;;-10.65;65.97
70323;BME280;57735;56.264;43.898;2023-12-07T09:31:12;103195.31;;;-10.62;65.93
70323;BME280;57735;56.264;43.898;2023-12-07T09:33:43;103196.75;;;-10.70;64.98
70323;BME280;57735;56.264;43.898;2023-12-07T09:36:17;103197.69;;;-10.68;65.43
70323;BME280;57735;56.264;43.898;2023-12-07T09:38:52;103196.19;;;-10.62;65.46
70323;BME280;57735;56.264;43.898;2023-12-07T09:41:23;103191.19;;;-10.57;64.99
70323;BME280;57735;56.264;43.898;2023-12-07T09:43:54;103189.50;;;-10.55;64.84
70323;BME280;57735;56.264;43.898;2023-12-07T09:46:27;103191.25;;;-10.54;65.23
70323;BME280;57735;56.264;43.898;2023-12-07T09:49:02;103189.69;;;-10.49;65.19
70323;BME280;57735;56.264;43.898;2023-12-07T09:51:33;103190.63;;;-10.47;65.02
70323;BME280;57735;56.264;43.898;2023-12-07T09:54:05;103204.72;;;-10.36;65.38
70323;BME280;57735;56.264;43.898;2023-12-07T09:56:36;103192.59;;;-10.40;64.84
70323;BME280;57735;56.264;43.898;2023-12-07T09:59:07;103201.19;;;-10.39;64.65
70323;BME280;57735;56.264;43.898;2023-12-07T10:01:38;103204.34;;;-10.48;64.36
70323;BME280;57735;56.264;43.898;2023-12-07T10:04:16;103203.53;;;-10.47;64.72
70323;BME280;57735;56.264;43.898;2023-12-07T10:06:48;103218.22;;;-10.44;65.07
70323;BME280;57735;56.264;43.898;2023-12-07T10:09:20;103205.22;;;-10.47;64.64
70323;BME280;57735;56.264;43.898;2023-12-07T10:12:12;103200.00;;;-10.49;64.86
70323;BME280;57735;56.264;43.898;2023-12-07T10:14:43;103196.50;;;-10.51;64.96
70323;BME280;57735;56.264;43.898;2023-12-07T10:17:17;103198.25;;;-10.50;64.74
70323;BME280;57735;56.264;43.898;2023-12-07T10:20:09;103198.16;;;-10.53;64.78
70323;BME280;57735;56.264;43.898;2023-12-07T10:22:44;103206.72;;;-10.54;65.05
70323;BME280;57735;56.264;43.898;2023-12-07T10:25:22;103193.94;;;-10.51;65.08
70323;BME280;57735;56.264;43.898;2023-12-07T10:27:54;103191.56;;;-10.45;65.20
70323;BME280;57735;56.264;43.898;2023-12-07T10:30:27;103203.53;;;-10.47;65.36
70323;BME280;57735;56.264;43.898;2023-12-07T10:32:58;103200.75;;;-10.53;65.11
70323;BME280;57735;56.264;43.898;2023-12-07T10:35:29;103198.09;;;-10.54;65.40
70323;BME280;57735;56.264;43.898;2023-12-07T10:38:00;103199.81;;;-10.55;65.29
70323;BME280;57735;56.264;43.898;2023-12-07T10:40:31;103193.59;;;-10.62;65.29
70323;BME280;57735;56.264;43.898;2023-12-07T10:43:05;103201.72;;;-10.76;65.08
70323;BME280;57735;56.264;43.898;2023-12-07T10:45:36;103204.84;;;-10.85;65.19
70323;BME280;57735;56.264;43.898;2023-12-07T10:48:09;103205.41;;;-10.95;65.35
70323;BME280;57735;56.264;43.898;2023-12-07T10:50:46;103199.41;;;-10.94;65.96
70323;BME280;57735;56.264;43.898;2023-12-07T10:53:27;103204.56;;;-10.94;65.73
70323;BME280;57735;56.264;43.898;2023-12-07T10:56:01;103204.47;;;-10.97;65.85
70323;BME280;57735;56.264;43.898;2023-12-07T10:58:35;103207.75;;;-11.01;65.94
70323;BME280;57735;56.264;43.898;2023-12-07T11:01:07;103213.63;;;-11.05;66.34
70323;BME280;57735;56.264;43.898;2023-12-07T11:03:43;103196.56;;;-11.02;66.57
70323;BME280;57735;56.264;43.898;2023-12-07T11:06:14;103198.09;;;-11.08;66.57
70323;BME280;57735;56.264;43.898;2023-12-07T11:08:58;103206.69;;;-11.08;66.82
70323;BME280;57735;56.264;43.898;2023-12-07T11:11:39;103207.69;;;-11.03;66.83
70323;BME280;57735;56.264;43.898;2023-12-07T11:14:13;103212.91;;;-11.01;67.00
70323;BME280;57735;56.264;43.898;2023-12-07T11:16:46;103223.31;;;-10.98;66.78
70323;BME280;57735;56.264;43.898;2023-12-07T11:22:16;103220.78;;;-10.97;66.54
70323;BME280;57735;56.264;43.898;2023-12-07T11:24:54;103223.19;;;-11.01;66.36
70323;BME280;57735;56.264;43.898;2023-12-07T11:27:32;103235.16;;;-11.03;66.52
70323;BME280;57735;56.264;43.898;2023-12-07T11:30:03;103229.91;;;-11.06;66.69
70323;BME280;57735;56.264;43.898;2023-12-07T11:32:39;103228.88;;;-11.11;66.45
70323;BME280;57735;56.264;43.898;2023-12-07T11:35:12;103223.56;;;-11.16;66.64
70323;BME280;57735;56.264;43.898;2023-12-07T11:40:41;103227.78;;;-11.18;66.99
70323;BME280;57735;56.264;43.898;2023-12-07T11:46:15;103228.53;;;-11.20;66.86
70323;BME280;57735;56.264;43.898;2023-12-07T11:48:52;103230.16;;;-11.24;66.98
70323;BME280;57735;56.264;43.898;2023-12-07T11:51:31;103229.41;;;-11.20;67.13
70323;BME280;57735;56.264;43.898;2023-12-07T11:54:02;103231.16;;;-11.19;66.96
70323;BME280;57735;56.264;43.898;2023-12-07T11:56:33;103233.75;;;-11.19;67.17
70323;BME280;57735;56.264;43.898;2023-12-07T11:59:04;103232.88;;;-11.19;67.31
70323;BME280;57735;56.264;43.898;2023-12-07T12:01:35;103243.78;;;-11.26;67.20
70323;BME280;57735;56.264;43.898;2023-12-07T12:04:06;103242.09;;;-11.26;67.36
70323;BME280;57735;56.264;43.898;2023-12-07T12:06:41;103247.25;;;-11.26;67.54
70323;BME280;57735;56.264;43.898;2023-12-07T12:09:16;103243.03;;;-11.24;67.68
70323;BME280;57735;56.264;43.898;2023-12-07T12:11:48;103245.59;;;-11.24;67.55
70323;BME280;57735;56.264;43.898;2023-12-07T12:14:21;103258.25;;;-11.30;67.34
70323;BME280;57735;56.264;43.898;2023-12-07T12:16:52;103251.94;;;-11.38;67.25
70323;BME280;57735;56.264;43.898;2023-12-07T12:19:24;103247.28;;;-11.48;67.38
70323;BME280;57735;56.264;43.898;2023-12-07T12:21:55;103249.50;;;-11.59;67.68
70323;BME280;57735;56.264;43.898;2023-12-07T12:24:26;103254.41;;;-11.65;67.87
70323;BME280;57735;56.264;43.898;2023-12-07T12:26:58;103249.13;;;-11.68;68.08
70323;BME280;57735;56.264;43.898;2023-12-07T12:29:29;103258.41;;;-11.73;68.26
70323;BME280;57735;56.264;43.898;2023-12-07T12:32:03;103255.81;;;-11.73;68.37
70323;BME280;57735;56.264;43.898;2023-12-07T12:34:34;103241.88;;;-11.80;68.48
70323;BME280;57735;56.264;43.898;2023-12-07T12:37:12;103245.84;;;-11.88;68.00
70323;BME280;57735;56.264;43.898;2023-12-07T12:39:43;103245.75;;;-11.91;68.53
70323;BME280;57735;56.264;43.898;2023-12-07T12:42:14;103248.34;;;-11.91;68.33
70323;BME280;57735;56.264;43.898;2023-12-07T12:44:45;103250.84;;;-11.92;68.58
70323;BME280;57735;56.264;43.898;2023-12-07T12:47:16;103260.94;;;-11.97;68.59
70323;BME280;57735;56.264;43.898;2023-12-07T12:49:47;103257.63;;;-11.94;68.81
70323;BME280;57735;56.264;43.898;2023-12-07T12:52:18;103256.94;;;-11.90;69.05
70323;BME280;57735;56.264;43.898;2023-12-07T12:54:49;103250.09;;;-11.90;68.79
70323;BME280;57735;56.264;43.898;2023-12-07T12:57:19;103254.22;;;-11.93;68.73
70323;BME280;57735;56.264;43.898;2023-12-07T12:59:52;103250.94;;;-11.89;68.85
70323;BME280;57735;56.264;43.898;2023-12-07T13:02:23;103253.56;;;-11.88;68.84
70323;BME280;57735;56.264;43.898;2023-12-07T13:04:54;103254.22;;;-11.93;68.65